sensor_id;sensor_type;location;lat;lon;timestamp;pressure;altitude;pressure_sealevel;temperature;humidity
49063;BME280;34876;51.464;-0.150;2023-03-01T00:01:56;103212.56;;;12.52;45.04
49063;BME280;34876;51.464;-0.150;2023-03-01T00:04:25;103217.14;;;12.36;45.47
49063;BME280;34876;51.464;-0.150;2023-03-01T00:06:54;103212.19;;;13.13;43.39
49063;BME280;34876;51.464;-0.150;2023-03-01T00:09:24;103209.95;;;13.43;42.70
49063;BME280;34876;51.464;-0.150;2023-03-01T00:11:54;103206.98;;;13.88;41.06
49063;BME280;34876;51.464;-0.150;2023-03-01T00:14:24;103205.98;;;15.44;38.10
49063;BME280;34876;51.464;-0.150;2023-03-01T00:16:54;103205.92;;;15.46;37.84
49063;BME280;34876;51.464;-0.150;2023-03-01T00:19:25;103206.87;;;15.87;37.11
49063;BME280;34876;51.464;-0.150;2023-03-01T00:21:54;103209.76;;;15.89;36.95
49063;BME280;34876;51.464;-0.150;2023-03-01T00:24:23;103215.55;;;15.48;35.95
49063;BME280;34876;51.464;-0.150;2023-03-01T00:26:53;103220.83;;;15.04;38.39
49063;BME280;34876;51.464;-0.150;2023-03-01T00:29:28;103221.18;;;15.72;37.13
49063;BME280;34876;51.464;-0.150;2023-03-01T00:31:59;103217.96;;;15.70;37.09
49063;BME280;34876;51.464;-0.150;2023-03-01T00:34:28;103214.24;;;15.86;36.72
49063;BME280;34876;51.464;-0.150;2023-03-01T00:36:57;103214.40;;;16.06;36.29
49063;BME280;34876;51.464;-0.150;2023-03-01T00:39:27;103222.52;;;14.97;38.41
49063;BME280;34876;51.464;-0.150;2023-03-01T00:41:56;103215.82;;;15.63;36.39
49063;BME280;34876;51.464;-0.150;2023-03-01T00:44:26;103218.61;;;15.00;38.24
49063;BME280;34876;51.464;-0.150;2023-03-01T00:46:56;103208.82;;;15.88;36.60
49063;BME280;34876;51.464;-0.150;2023-03-01T00:49:27;103206.82;;;16.11;36.11
49063;BME280;34876;51.464;-0.150;2023-03-01T00:51:57;103203.21;;;16.16;35.97
49063;BME280;34876;51.464;-0.150;2023-03-01T00:54:26;103200.66;;;16.21;35.80
49063;BME280;34876;51.464;-0.150;2023-03-01T00:56:56;103202.97;;;16.19;35.85
49063;BME280;34876;51.464;-0.150;2023-03-01T00:59:26;103201.33;;;16.07;36.11
49063;BME280;34876;51.464;-0.150;2023-03-01T01:03:19;103199.35;;;16.10;35.34
49063;BME280;34876;51.464;-0.150;2023-03-01T01:05:50;103196.52;;;15.51;37.13
49063;BME280;34876;51.464;-0.150;2023-03-01T01:08:20;103196.05;;;15.87;36.43
49063;BME280;34876;51.464;-0.150;2023-03-01T01:10:49;103203.07;;;13.22;41.58
49063;BME280;34876;51.464;-0.150;2023-03-01T01:13:19;103225.24;;;10.43;48.70
49063;BME280;34876;51.464;-0.150;2023-03-01T01:15:49;103206.60;;;13.95;40.91
49063;BME280;34876;51.464;-0.150;2023-03-01T01:18:17;103213.01;;;12.04;45.00
49063;BME280;34876;51.464;-0.150;2023-03-01T01:20:46;103207.31;;;14.27;40.30
49063;BME280;34876;51.464;-0.150;2023-03-01T01:23:16;103205.97;;;13.66;40.86
49063;BME280;34876;51.464;-0.150;2023-03-01T01:25:45;103204.94;;;13.43;41.44
49063;BME280;34876;51.464;-0.150;2023-03-01T01:28:14;103206.11;;;12.89;43.46
49063;BME280;34876;51.464;-0.150;2023-03-01T01:30:44;103207.55;;;13.41;42.17
49063;BME280;34876;51.464;-0.150;2023-03-01T01:33:13;103204.53;;;14.46;39.85
49063;BME280;34876;51.464;-0.150;2023-03-01T01:35:44;103195.91;;;14.87;39.06
49063;BME280;34876;51.464;-0.150;2023-03-01T01:38:14;103204.79;;;12.83;42.72
49063;BME280;34876;51.464;-0.150;2023-03-01T01:40:43;103198.33;;;14.70;39.47
49063;BME280;34876;51.464;-0.150;2023-03-01T01:43:18;103191.54;;;15.44;37.74
49063;BME280;34876;51.464;-0.150;2023-03-01T01:45:49;103191.70;;;15.00;38.32
49063;BME280;34876;51.464;-0.150;2023-03-01T01:48:22;103187.28;;;15.48;37.50
49063;BME280;34876;51.464;-0.150;2023-03-01T01:50:57;103197.65;;;14.81;38.93
49063;BME280;34876;51.464;-0.150;2023-03-01T01:53:27;103183.21;;;15.22;38.07
49063;BME280;34876;51.464;-0.150;2023-03-01T01:55:59;103186.46;;;14.76;39.07
49063;BME280;34876;51.464;-0.150;2023-03-01T01:58:30;103182.43;;;14.29;39.68
49063;BME280;34876;51.464;-0.150;2023-03-01T02:01:05;103170.41;;;15.32;37.93
49063;BME280;34876;51.464;-0.150;2023-03-01T02:03:38;103162.07;;;15.68;37.19
49063;BME280;34876;51.464;-0.150;2023-03-01T02:06:12;103161.29;;;16.02;36.51
49063;BME280;34876;51.464;-0.150;2023-03-01T02:08:45;103159.79;;;16.01;36.36
49063;BME280;34876;51.464;-0.150;2023-03-01T02:11:17;103157.86;;;14.86;38.77
49063;BME280;34876;51.464;-0.150;2023-03-01T02:13:47;103147.74;;;15.92;36.72
49063;BME280;34876;51.464;-0.150;2023-03-01T02:16:17;103148.45;;;15.16;38.20
49063;BME280;34876;51.464;-0.150;2023-03-01T02:18:47;103142.29;;;15.74;36.71
49063;BME280;34876;51.464;-0.150;2023-03-01T02:21:28;103144.40;;;15.12;38.04
49063;BME280;34876;51.464;-0.150;2023-03-01T02:24:03;103140.01;;;14.93;38.81
49063;BME280;34876;51.464;-0.150;2023-03-01T02:26:40;103137.97;;;14.85;38.87
49063;BME280;34876;51.464;-0.150;2023-03-01T02:29:09;103143.54;;;13.49;41.74
49063;BME280;34876;51.464;-0.150;2023-03-01T02:31:38;103132.63;;;15.58;37.48
49063;BME280;34876;51.464;-0.150;2023-03-01T02:34:12;103131.44;;;15.94;36.66
49063;BME280;34876;51.464;-0.150;2023-03-01T02:36:46;103130.82;;;15.62;37.30
49063;BME280;34876;51.464;-0.150;2023-03-01T02:39:18;103125.77;;;15.58;37.32
49063;BME280;34876;51.464;-0.150;2023-03-01T02:41:51;103126.30;;;15.63;37.37
49063;BME280;34876;51.464;-0.150;2023-03-01T02:44:22;103123.06;;;15.71;37.11
49063;BME280;34876;51.464;-0.150;2023-03-01T02:46:52;103122.94;;;16.10;36.33
49063;BME280;34876;51.464;-0.150;2023-03-01T02:49:30;103126.30;;;16.02;36.49
49063;BME280;34876;51.464;-0.150;2023-03-01T02:52:21;103121.46;;;15.69;37.04
49063;BME280;34876;51.464;-0.150;2023-03-01T02:54:58;103128.74;;;14.56;39.27
49063;BME280;34876;51.464;-0.150;2023-03-01T02:57:28;103116.51;;;15.04;38.32
49063;BME280;34876;51.464;-0.150;2023-03-01T03:00:03;103114.96;;;15.56;37.48
49063;BME280;34876;51.464;-0.150;2023-03-01T03:02:35;103106.67;;;15.43;37.69
49063;BME280;34876;51.464;-0.150;2023-03-01T03:05:08;103105.69;;;15.59;37.24
49063;BME280;34876;51.464;-0.150;2023-03-01T03:07:39;103098.39;;;15.06;38.44
49063;BME280;34876;51.464;-0.150;2023-03-01T03:10:11;103107.52;;;14.21;39.82
49063;BME280;34876;51.464;-0.150;2023-03-01T03:12:40;103097.85;;;15.71;37.19
49063;BME280;34876;51.464;-0.150;2023-03-01T03:15:11;103100.39;;;14.95;38.41
49063;BME280;34876;51.464;-0.150;2023-03-01T03:17:42;103095.86;;;15.43;37.38
49063;BME280;34876;51.464;-0.150;2023-03-01T03:20:14;103097.21;;;14.82;38.96
49063;BME280;34876;51.464;-0.150;2023-03-01T03:22:44;103099.91;;;14.49;39.41
49063;BME280;34876;51.464;-0.150;2023-03-01T03:25:14;103093.95;;;14.72;39.22
49063;BME280;34876;51.464;-0.150;2023-03-01T03:27:44;103087.29;;;15.09;38.26
49063;BME280;34876;51.464;-0.150;2023-03-01T03:30:17;103088.85;;;15.58;37.44
49063;BME280;34876;51.464;-0.150;2023-03-01T03:32:47;103087.65;;;15.54;37.48
49063;BME280;34876;51.464;-0.150;2023-03-01T03:35:16;103083.05;;;16.00;36.48
49063;BME280;34876;51.464;-0.150;2023-03-01T03:37:46;103081.98;;;14.72;38.96
49063;BME280;34876;51.464;-0.150;2023-03-01T03:40:15;103081.30;;;14.55;39.67
49063;BME280;34876;51.464;-0.150;2023-03-01T03:42:50;103090.51;;;13.27;41.91
49063;BME280;34876;51.464;-0.150;2023-03-01T03:45:19;103089.22;;;14.10;40.44
49063;BME280;34876;51.464;-0.150;2023-03-01T03:47:54;103080.67;;;14.41;39.97
49063;BME280;34876;51.464;-0.150;2023-03-01T03:50:22;103075.01;;;15.51;37.62
49063;BME280;34876;51.464;-0.150;2023-03-01T03:52:52;103072.12;;;15.87;36.80
49063;BME280;34876;51.464;-0.150;2023-03-01T03:55:21;103082.03;;;13.65;41.36
49063;BME280;34876;51.464;-0.150;2023-03-01T03:57:50;103080.86;;;13.66;41.25
49063;BME280;34876;51.464;-0.150;2023-03-01T04:00:21;103070.97;;;15.17;38.21
49063;BME280;34876;51.464;-0.150;2023-03-01T04:02:51;103066.85;;;14.45;39.86
49063;BME280;34876;51.464;-0.150;2023-03-01T04:05:20;103077.84;;;13.54;41.15
49063;BME280;34876;51.464;-0.150;2023-03-01T04:07:50;103073.41;;;13.35;42.69
49063;BME280;34876;51.464;-0.150;2023-03-01T04:10:20;103059.69;;;15.11;38.63
49063;BME280;34876;51.464;-0.150;2023-03-01T04:12:50;103055.76;;;15.43;37.69
49063;BME280;34876;51.464;-0.150;2023-03-01T04:15:19;103055.53;;;15.82;36.90
49063;BME280;34876;51.464;-0.150;2023-03-01T04:17:48;103050.07;;;16.00;36.55
49063;BME280;34876;51.464;-0.150;2023-03-01T04:20:19;103050.11;;;15.76;36.66
49063;BME280;34876;51.464;-0.150;2023-03-01T04:22:48;103047.46;;;15.34;37.81
49063;BME280;34876;51.464;-0.150;2023-03-01T04:25:23;103046.23;;;15.06;38.46
49063;BME280;34876;51.464;-0.150;2023-03-01T04:27:52;103045.50;;;14.83;38.91
49063;BME280;34876;51.464;-0.150;2023-03-01T04:30:21;103039.71;;;15.73;37.04
49063;BME280;34876;51.464;-0.150;2023-03-01T04:32:49;103036.86;;;15.27;38.01
49063;BME280;34876;51.464;-0.150;2023-03-01T04:35:19;103039.11;;;15.32;37.94
49063;BME280;34876;51.464;-0.150;2023-03-01T04:37:47;103039.64;;;15.87;36.83
49063;BME280;34876;51.464;-0.150;2023-03-01T04:40:18;103038.70;;;14.72;39.00
49063;BME280;34876;51.464;-0.150;2023-03-01T04:42:48;103032.03;;;15.70;37.15
49063;BME280;34876;51.464;-0.150;2023-03-01T04:45:17;103033.73;;;15.18;38.18
49063;BME280;34876;51.464;-0.150;2023-03-01T04:47:47;103042.24;;;13.12;42.79
49063;BME280;34876;51.464;-0.150;2023-03-01T04:50:18;103029.31;;;14.91;38.89
49063;BME280;34876;51.464;-0.150;2023-03-01T04:52:47;103031.29;;;15.65;37.35
49063;BME280;34876;51.464;-0.150;2023-03-01T04:55:18;103031.43;;;14.90;38.81
49063;BME280;34876;51.464;-0.150;2023-03-01T04:57:47;103041.88;;;13.04;43.01
49063;BME280;34876;51.464;-0.150;2023-03-01T05:00:16;103036.96;;;14.14;41.02
49063;BME280;34876;51.464;-0.150;2023-03-01T05:02:48;103029.91;;;15.24;38.39
49063;BME280;34876;51.464;-0.150;2023-03-01T05:05:17;103026.36;;;14.91;39.10
49063;BME280;34876;51.464;-0.150;2023-03-01T05:07:45;103023.62;;;15.47;37.85
49063;BME280;34876;51.464;-0.150;2023-03-01T05:10:15;103025.42;;;14.49;40.14
49063;BME280;34876;51.464;-0.150;2023-03-01T05:12:44;103023.75;;;15.73;37.40
49063;BME280;34876;51.464;-0.150;2023-03-01T05:15:13;103029.20;;;15.11;39.39
49063;BME280;34876;51.464;-0.150;2023-03-01T05:17:41;103032.71;;;14.26;41.04
49063;BME280;34876;51.464;-0.150;2023-03-01T05:20:11;103031.14;;;12.97;43.64
49063;BME280;34876;51.464;-0.150;2023-03-01T05:22:41;103029.35;;;14.35;40.58
49063;BME280;34876;51.464;-0.150;2023-03-01T05:25:10;103034.72;;;12.63;44.54
49063;BME280;34876;51.464;-0.150;2023-03-01T05:27:39;103024.94;;;12.87;43.95
49063;BME280;34876;51.464;-0.150;2023-03-01T05:30:10;103023.11;;;12.88;44.06
49063;BME280;34876;51.464;-0.150;2023-03-01T05:32:41;103010.36;;;15.31;38.52
49063;BME280;34876;51.464;-0.150;2023-03-01T05:35:12;103008.25;;;15.29;38.40
49063;BME280;34876;51.464;-0.150;2023-03-01T05:37:43;103017.39;;;13.33;42.65
49063;BME280;34876;51.464;-0.150;2023-03-01T05:40:15;103008.80;;;15.30;38.50
49063;BME280;34876;51.464;-0.150;2023-03-01T05:42:46;103009.55;;;15.76;37.68
49063;BME280;34876;51.464;-0.150;2023-03-01T05:45:16;103018.69;;;13.56;42.36
49063;BME280;34876;51.464;-0.150;2023-03-01T05:47:46;103003.99;;;15.32;38.45
49063;BME280;34876;51.464;-0.150;2023-03-01T05:50:18;103005.73;;;15.31;38.32
49063;BME280;34876;51.464;-0.150;2023-03-01T05:52:50;103029.80;;;11.00;48.12
49063;BME280;34876;51.464;-0.150;2023-03-01T05:55:20;103017.06;;;13.07;43.54
49063;BME280;34876;51.464;-0.150;2023-03-01T05:57:49;103005.06;;;15.23;38.65
49063;BME280;34876;51.464;-0.150;2023-03-01T06:00:21;103010.40;;;14.26;40.80
49063;BME280;34876;51.464;-0.150;2023-03-01T06:02:50;103000.65;;;15.61;37.78
49063;BME280;34876;51.464;-0.150;2023-03-01T06:05:25;102999.16;;;14.82;39.48
49063;BME280;34876;51.464;-0.150;2023-03-01T06:07:56;102997.86;;;15.39;38.20
49063;BME280;34876;51.464;-0.150;2023-03-01T06:10:27;103003.89;;;15.60;37.66
49063;BME280;34876;51.464;-0.150;2023-03-01T06:12:56;103003.41;;;15.77;37.30
49063;BME280;34876;51.464;-0.150;2023-03-01T06:15:26;103003.42;;;14.08;41.01
49063;BME280;34876;51.464;-0.150;2023-03-01T06:17:55;103015.47;;;13.80;41.59
49063;BME280;34876;51.464;-0.150;2023-03-01T06:20:27;103014.69;;;14.43;40.34
49063;BME280;34876;51.464;-0.150;2023-03-01T06:22:56;103022.88;;;12.18;45.29
49063;BME280;34876;51.464;-0.150;2023-03-01T06:25:27;103014.80;;;13.60;42.42
49063;BME280;34876;51.464;-0.150;2023-03-01T06:27:56;103003.12;;;15.03;39.07
49063;BME280;34876;51.464;-0.150;2023-03-01T06:30:26;103002.24;;;15.64;37.64
49063;BME280;34876;51.464;-0.150;2023-03-01T06:32:56;103007.26;;;15.76;37.34
49063;BME280;34876;51.464;-0.150;2023-03-01T06:35:25;103010.67;;;16.00;36.83
49063;BME280;34876;51.464;-0.150;2023-03-01T06:37:54;103019.56;;;15.53;37.81
49063;BME280;34876;51.464;-0.150;2023-03-01T06:40:23;103017.11;;;14.80;39.30
49063;BME280;34876;51.464;-0.150;2023-03-01T06:42:52;103017.15;;;15.69;37.49
49063;BME280;34876;51.464;-0.150;2023-03-01T06:45:21;103016.70;;;15.94;36.96
49063;BME280;34876;51.464;-0.150;2023-03-01T06:47:50;103020.86;;;15.90;36.99
49063;BME280;34876;51.464;-0.150;2023-03-01T06:50:21;103018.76;;;15.69;37.45
49063;BME280;34876;51.464;-0.150;2023-03-01T06:52:55;103015.87;;;15.74;37.32
49063;BME280;34876;51.464;-0.150;2023-03-01T06:55:25;103019.92;;;15.96;36.88
49063;BME280;34876;51.464;-0.150;2023-03-01T06:57:55;103021.20;;;15.78;37.15
49063;BME280;34876;51.464;-0.150;2023-03-01T07:00:24;103018.87;;;16.07;36.63
49063;BME280;34876;51.464;-0.150;2023-03-01T07:02:54;103019.83;;;16.11;36.55
49063;BME280;34876;51.464;-0.150;2023-03-01T07:05:24;103023.54;;;15.72;37.25
49063;BME280;34876;51.464;-0.150;2023-03-01T07:07:53;103023.89;;;14.71;39.55
49063;BME280;34876;51.464;-0.150;2023-03-01T07:10:23;103026.85;;;14.52;39.87
49063;BME280;34876;51.464;-0.150;2023-03-01T07:12:55;103022.49;;;15.76;37.35
49063;BME280;34876;51.464;-0.150;2023-03-01T07:15:29;103024.30;;;15.99;36.79
49063;BME280;34876;51.464;-0.150;2023-03-01T07:17:58;103030.82;;;15.12;38.54
49063;BME280;34876;51.464;-0.150;2023-03-01T07:20:27;103036.10;;;13.65;41.61
49063;BME280;34876;51.464;-0.150;2023-03-01T07:22:56;103027.11;;;14.98;39.03
49063;BME280;34876;51.464;-0.150;2023-03-01T07:25:26;103032.92;;;13.49;42.06
49063;BME280;34876;51.464;-0.150;2023-03-01T07:27:55;103027.46;;;14.08;41.05
49063;BME280;34876;51.464;-0.150;2023-03-01T07:30:26;103031.32;;;13.86;41.36
49063;BME280;34876;51.464;-0.150;2023-03-01T07:32:57;103038.88;;;13.82;41.35
49063;BME280;34876;51.464;-0.150;2023-03-01T07:35:27;103031.14;;;14.82;39.15
49063;BME280;34876;51.464;-0.150;2023-03-01T07:37:57;103040.31;;;13.49;42.43
49063;BME280;34876;51.464;-0.150;2023-03-01T07:40:26;103023.39;;;14.82;39.49
49063;BME280;34876;51.464;-0.150;2023-03-01T07:42:56;103034.69;;;13.14;43.18
49063;BME280;34876;51.464;-0.150;2023-03-01T07:45:27;103023.77;;;14.41;40.46
49063;BME280;34876;51.464;-0.150;2023-03-01T07:47:58;103019.59;;;14.96;39.10
49063;BME280;34876;51.464;-0.150;2023-03-01T07:50:26;103016.27;;;15.29;38.25
49063;BME280;34876;51.464;-0.150;2023-03-01T07:52:55;103012.82;;;15.37;38.18
49063;BME280;34876;51.464;-0.150;2023-03-01T07:55:24;103007.98;;;15.27;38.23
49063;BME280;34876;51.464;-0.150;2023-03-01T07:57:54;103012.94;;;15.50;37.78
49063;BME280;34876;51.464;-0.150;2023-03-01T08:00:23;103016.68;;;15.78;37.23
49063;BME280;34876;51.464;-0.150;2023-03-01T08:02:52;103019.65;;;14.18;40.42
49063;BME280;34876;51.464;-0.150;2023-03-01T08:05:21;103020.96;;;15.21;38.04
49063;BME280;34876;51.464;-0.150;2023-03-01T08:07:50;103028.42;;;13.56;41.59
49063;BME280;34876;51.464;-0.150;2023-03-01T08:10:20;103022.06;;;14.53;39.40
49063;BME280;34876;51.464;-0.150;2023-03-01T08:12:51;103015.24;;;15.25;38.41
49063;BME280;34876;51.464;-0.150;2023-03-01T08:15:20;103024.62;;;13.35;41.17
49063;BME280;34876;51.464;-0.150;2023-03-01T08:17:50;103024.11;;;12.29;44.07
49063;BME280;34876;51.464;-0.150;2023-03-01T08:20:20;103024.61;;;12.73;44.32
49063;BME280;34876;51.464;-0.150;2023-03-01T08:22:50;103023.85;;;13.43;42.45
49063;BME280;34876;51.464;-0.150;2023-03-01T08:25:19;103012.08;;;14.20;39.98
49063;BME280;34876;51.464;-0.150;2023-03-01T08:27:48;103012.43;;;14.36;40.43
49063;BME280;34876;51.464;-0.150;2023-03-01T08:30:18;103011.12;;;14.25;40.18
49063;BME280;34876;51.464;-0.150;2023-03-01T08:32:47;103004.34;;;14.57;39.01
49063;BME280;34876;51.464;-0.150;2023-03-01T08:35:18;103009.71;;;12.69;43.28
49063;BME280;34876;51.464;-0.150;2023-03-01T08:37:47;103010.30;;;13.61;41.13
49063;BME280;34876;51.464;-0.150;2023-03-01T08:40:16;103004.03;;;15.09;38.67
49063;BME280;34876;51.464;-0.150;2023-03-01T08:42:45;103004.76;;;15.07;38.67
49063;BME280;34876;51.464;-0.150;2023-03-01T08:45:15;103001.56;;;15.11;38.38
49063;BME280;34876;51.464;-0.150;2023-03-01T08:47:44;103003.97;;;14.13;39.54
49063;BME280;34876;51.464;-0.150;2023-03-01T08:50:13;102998.83;;;15.37;37.95
49063;BME280;34876;51.464;-0.150;2023-03-01T08:52:42;102997.17;;;15.18;38.42
49063;BME280;34876;51.464;-0.150;2023-03-01T08:55:11;102993.63;;;15.72;36.94
49063;BME280;34876;51.464;-0.150;2023-03-01T08:57:40;102989.32;;;15.87;36.94
49063;BME280;34876;51.464;-0.150;2023-03-01T09:00:11;102989.30;;;16.31;36.05
49063;BME280;34876;51.464;-0.150;2023-03-01T09:02:41;102989.44;;;16.18;36.22
49063;BME280;34876;51.464;-0.150;2023-03-01T09:05:10;102990.31;;;16.15;36.29
49063;BME280;34876;51.464;-0.150;2023-03-01T09:07:39;102991.75;;;14.71;37.89
49063;BME280;34876;51.464;-0.150;2023-03-01T09:10:13;102990.13;;;15.21;38.30
49063;BME280;34876;51.464;-0.150;2023-03-01T09:12:43;102988.70;;;15.10;38.39
49063;BME280;34876;51.464;-0.150;2023-03-01T09:15:12;102999.02;;;12.74;43.65
49063;BME280;34876;51.464;-0.150;2023-03-01T09:17:41;103003.20;;;12.96;42.28
49063;BME280;34876;51.464;-0.150;2023-03-01T09:20:11;102994.20;;;12.39;43.43
49063;BME280;34876;51.464;-0.150;2023-03-01T09:22:39;102993.07;;;10.93;46.60
49063;BME280;34876;51.464;-0.150;2023-03-01T09:25:08;102972.66;;;14.80;39.45
49063;BME280;34876;51.464;-0.150;2023-03-01T09:27:37;102972.36;;;15.74;37.16
49063;BME280;34876;51.464;-0.150;2023-03-01T09:30:09;102974.56;;;15.53;37.55
49063;BME280;34876;51.464;-0.150;2023-03-01T09:32:38;102972.01;;;15.64;37.29
49063;BME280;34876;51.464;-0.150;2023-03-01T09:35:08;102968.44;;;15.29;37.48
49063;BME280;34876;51.464;-0.150;2023-03-01T09:37:38;102967.17;;;15.05;38.55
49063;BME280;34876;51.464;-0.150;2023-03-01T09:40:12;102960.26;;;15.96;36.66
49063;BME280;34876;51.464;-0.150;2023-03-01T09:42:54;102955.98;;;15.78;36.98
49063;BME280;34876;51.464;-0.150;2023-03-01T09:45:28;102953.12;;;15.91;36.62
49063;BME280;34876;51.464;-0.150;2023-03-01T09:48:02;102956.30;;;14.87;38.82
49063;BME280;34876;51.464;-0.150;2023-03-01T09:50:35;102951.81;;;14.93;38.47
49063;BME280;34876;51.464;-0.150;2023-03-01T09:53:13;102948.91;;;13.72;40.48
49063;BME280;34876;51.464;-0.150;2023-03-01T09:55:48;102943.57;;;13.70;41.81
49063;BME280;34876;51.464;-0.150;2023-03-01T09:58:54;102944.33;;;13.84;41.19
49063;BME280;34876;51.464;-0.150;2023-03-01T10:01:30;102951.54;;;13.38;42.39
49063;BME280;34876;51.464;-0.150;2023-03-01T10:04:28;102939.00;;;14.91;38.88
49063;BME280;34876;51.464;-0.150;2023-03-01T10:07:17;102937.07;;;14.69;38.99
49063;BME280;34876;51.464;-0.150;2023-03-01T10:09:48;102935.02;;;15.11;38.38
49063;BME280;34876;51.464;-0.150;2023-03-01T10:12:20;102932.94;;;14.72;39.32
49063;BME280;34876;51.464;-0.150;2023-03-01T10:14:57;102933.41;;;14.94;37.95
49063;BME280;34876;51.464;-0.150;2023-03-01T10:17:34;102934.68;;;14.33;39.55
49063;BME280;34876;51.464;-0.150;2023-03-01T10:20:20;102932.68;;;14.95;38.84
49063;BME280;34876;51.464;-0.150;2023-03-01T10:22:50;102929.44;;;15.33;37.97
49063;BME280;34876;51.464;-0.150;2023-03-01T10:25:36;102932.40;;;15.39;37.95
49063;BME280;34876;51.464;-0.150;2023-03-01T10:28:16;102928.75;;;16.19;36.28
49063;BME280;34876;51.464;-0.150;2023-03-01T10:30:46;102934.32;;;14.40;39.12
49063;BME280;34876;51.464;-0.150;2023-03-01T10:33:22;102931.79;;;13.98;41.11
49063;BME280;34876;51.464;-0.150;2023-03-01T10:35:52;102932.02;;;15.32;38.19
49063;BME280;34876;51.464;-0.150;2023-03-01T10:38:22;102930.72;;;14.69;39.32
49063;BME280;34876;51.464;-0.150;2023-03-01T10:40:53;102937.61;;;13.01;41.26
49063;BME280;34876;51.464;-0.150;2023-03-01T10:43:24;102922.33;;;14.31;40.37
49063;BME280;34876;51.464;-0.150;2023-03-01T10:45:56;102917.93;;;15.49;37.55
49063;BME280;34876;51.464;-0.150;2023-03-01T10:48:26;102924.07;;;14.64;39.09
49063;BME280;34876;51.464;-0.150;2023-03-01T10:51:06;102922.96;;;14.52;38.97
49063;BME280;34876;51.464;-0.150;2023-03-01T10:53:37;102922.35;;;14.73;39.30
49063;BME280;34876;51.464;-0.150;2023-03-01T10:56:09;102919.22;;;15.61;37.51
49063;BME280;34876;51.464;-0.150;2023-03-01T10:58:41;102918.46;;;15.58;37.49
49063;BME280;34876;51.464;-0.150;2023-03-01T11:01:27;102912.23;;;15.50;37.70
49063;BME280;34876;51.464;-0.150;2023-03-01T11:04:11;102906.20;;;15.19;38.32
49063;BME280;34876;51.464;-0.150;2023-03-01T11:06:43;102897.65;;;16.10;36.44
49063;BME280;34876;51.464;-0.150;2023-03-01T11:09:31;102897.46;;;15.19;37.94
49063;BME280;34876;51.464;-0.150;2023-03-01T11:12:01;102892.02;;;15.15;38.53
49063;BME280;34876;51.464;-0.150;2023-03-01T11:14:35;102892.32;;;14.74;39.18
49063;BME280;34876;51.464;-0.150;2023-03-01T11:17:12;102893.93;;;15.07;38.44
49063;BME280;34876;51.464;-0.150;2023-03-01T11:20:00;102895.96;;;13.44;41.81
49063;BME280;34876;51.464;-0.150;2023-03-01T11:22:31;102900.95;;;13.83;40.97
49063;BME280;34876;51.464;-0.150;2023-03-01T11:25:02;102886.48;;;14.72;39.34
49063;BME280;34876;51.464;-0.150;2023-03-01T11:27:36;102877.21;;;15.20;38.40
49063;BME280;34876;51.464;-0.150;2023-03-01T11:30:15;102874.22;;;15.48;37.71
49063;BME280;34876;51.464;-0.150;2023-03-01T11:32:53;102883.31;;;12.52;42.31
49063;BME280;34876;51.464;-0.150;2023-03-01T11:35:26;102866.66;;;13.44;41.79
49063;BME280;34876;51.464;-0.150;2023-03-01T11:38:02;102859.22;;;14.06;40.83
49063;BME280;34876;51.464;-0.150;2023-03-01T11:40:39;102858.08;;;14.34;40.28
49063;BME280;34876;51.464;-0.150;2023-03-01T11:43:16;102844.19;;;15.23;38.42
49063;BME280;34876;51.464;-0.150;2023-03-01T11:45:55;102862.68;;;12.94;42.46
49063;BME280;34876;51.464;-0.150;2023-03-01T11:49:07;102858.19;;;12.58;44.28
49063;BME280;34876;51.464;-0.150;2023-03-01T11:51:49;102862.20;;;12.26;43.92
49063;BME280;34876;51.464;-0.150;2023-03-01T11:54:30;102849.48;;;14.75;39.52
49063;BME280;34876;51.464;-0.150;2023-03-01T11:57:10;102847.95;;;14.79;39.12
49063;BME280;34876;51.464;-0.150;2023-03-01T12:00:02;102850.17;;;13.38;42.12
49063;BME280;34876;51.464;-0.150;2023-03-01T12:02:50;102843.89;;;14.61;39.79
49063;BME280;34876;51.464;-0.150;2023-03-01T12:05:46;102835.54;;;15.67;37.54
49063;BME280;34876;51.464;-0.150;2023-03-01T12:08:23;102837.60;;;14.85;39.06
49063;BME280;34876;51.464;-0.150;2023-03-01T12:11:02;102830.36;;;14.70;38.91
49063;BME280;34876;51.464;-0.150;2023-03-01T12:14:07;102817.61;;;15.70;37.40
49063;BME280;34876;51.464;-0.150;2023-03-01T12:16:56;102809.49;;;15.86;37.05
49063;BME280;34876;51.464;-0.150;2023-03-01T12:19:42;102806.27;;;15.98;36.77
49063;BME280;34876;51.464;-0.150;2023-03-01T12:22:29;102804.46;;;15.91;36.89
49063;BME280;34876;51.464;-0.150;2023-03-01T12:25:39;102804.96;;;14.92;38.88
49063;BME280;34876;51.464;-0.150;2023-03-01T12:28:32;102794.76;;;15.78;36.98
49063;BME280;34876;51.464;-0.150;2023-03-01T12:31:21;102799.48;;;14.33;39.78
49063;BME280;34876;51.464;-0.150;2023-03-01T12:34:03;102785.96;;;14.02;40.92
49063;BME280;34876;51.464;-0.150;2023-03-01T12:37:19;102775.91;;;15.39;38.20
49063;BME280;34876;51.464;-0.150;2023-03-01T12:40:02;102773.50;;;15.40;38.05
49063;BME280;34876;51.464;-0.150;2023-03-01T12:42:37;102767.60;;;15.39;38.12
49063;BME280;34876;51.464;-0.150;2023-03-01T12:45:32;102775.37;;;13.04;42.19
49063;BME280;34876;51.464;-0.150;2023-03-01T12:48:19;102777.17;;;12.33;44.56
49063;BME280;34876;51.464;-0.150;2023-03-01T12:50:54;102756.14;;;13.68;41.99
49063;BME280;34876;51.464;-0.150;2023-03-01T12:53:27;102754.46;;;14.40;40.17
49063;BME280;34876;51.464;-0.150;2023-03-01T12:56:00;102747.13;;;14.37;39.48
49063;BME280;34876;51.464;-0.150;2023-03-01T12:58:33;102740.50;;;13.94;41.05
49063;BME280;34876;51.464;-0.150;2023-03-01T13:01:16;102736.14;;;14.69;39.61
49063;BME280;34876;51.464;-0.150;2023-03-01T13:04:00;102737.11;;;13.24;42.53
49063;BME280;34876;51.464;-0.150;2023-03-01T13:06:38;102723.74;;;13.97;41.17
49063;BME280;34876;51.464;-0.150;2023-03-01T13:09:19;102716.98;;;15.44;38.19
49063;BME280;34876;51.464;-0.150;2023-03-01T13:11:51;102732.62;;;12.34;44.60